createdAt,value
2022-10-17T00:02:16.299Z,44.70
2022-10-17T00:05:22.352Z,44.85
2022-10-17T00:08:28.071Z,46.38
2022-10-17T00:11:34.054Z,43.75
2022-10-17T00:14:39.721Z,47.47
2022-10-17T00:17:45.654Z,43.28
2022-10-17T00:20:52.174Z,44.25
2022-10-17T00:23:57.542Z,44.78
2022-10-17T00:27:04.331Z,45.22
2022-10-17T00:30:14.817Z,45.10
2022-10-17T00:33:20.370Z,45.50
2022-10-17T00:36:27.345Z,46.38
2022-10-17T00:39:33.193Z,44.08
2022-10-17T00:42:39.847Z,45.72
2022-10-17T00:45:45.691Z,45.33
2022-10-17T00:48:54.915Z,43.28
2022-10-17T00:52:03.618Z,43.35
2022-10-17T00:55:21.267Z,44.13
2022-10-17T00:58:27.883Z,43.33
2022-10-17T01:01:33.660Z,44.47
2022-10-17T01:04:42.617Z,43.45
2022-10-17T01:07:51.481Z,45.13
2022-10-17T01:11:31.826Z,42.47
2022-10-17T01:14:59.145Z,42.70
2022-10-17T01:18:34.223Z,44.30
2022-10-17T01:22:04.660Z,44.10
2022-10-17T01:25:47.225Z,42.08
2022-10-17T01:29:06.920Z,42.47
2022-10-17T01:32:51.354Z,44.17
2022-10-17T01:36:06.493Z,42.20
2022-10-17T01:39:32.531Z,44.00
2022-10-17T01:42:41.643Z,45.60
2022-10-17T01:46:12.349Z,44.90
2022-10-17T01:49:25.054Z,45.40
2022-10-17T01:52:57.685Z,45.05
2022-10-17T01:56:10.023Z,43.05
2022-10-17T01:59:39.921Z,46.45
2022-10-17T02:02:49.415Z,41.03
2022-10-17T02:06:13.648Z,44.15
2022-10-17T02:09:24.758Z,44.75
2022-10-17T02:12:57.990Z,44.25
2022-10-17T02:16:14.514Z,44.40
2022-10-17T02:19:48.230Z,43.47
2022-10-17T02:23:34.217Z,43.30
2022-10-17T02:27:05.836Z,43.55
2022-10-17T02:30:23.845Z,43.75
2022-10-17T02:33:52.154Z,44.47
2022-10-17T02:37:02.416Z,44.75
2022-10-17T02:40:28.256Z,41.47
2022-10-17T02:43:37.610Z,41.33
2022-10-17T02:47:09.659Z,43.78
2022-10-17T02:50:16.177Z,42.80
2022-10-17T02:53:43.661Z,42.60
2022-10-17T02:57:05.994Z,42.78
2022-10-17T03:00:31.424Z,42.47
2022-10-17T03:03:36.878Z,44.35
2022-10-17T03:07:01.156Z,43.33
2022-10-17T03:10:07.590Z,44.58
2022-10-17T03:13:35.029Z,44.20
2022-10-17T03:16:43.328Z,39.97
2022-10-17T03:20:07.703Z,39.65
2022-10-17T03:23:13.095Z,41.42
2022-10-17T03:26:37.425Z,44.17
2022-10-17T03:29:43.508Z,41.58
2022-10-17T03:33:08.105Z,42.65
2022-10-17T03:36:17.300Z,42.17
2022-10-17T03:39:42.985Z,46.35
2022-10-17T03:42:48.883Z,46.10
2022-10-17T03:46:13.960Z,44.35
2022-10-17T03:49:20.727Z,40.40
2022-10-17T03:52:45.033Z,41.97
2022-10-17T03:55:50.924Z,43.03
2022-10-17T03:59:15.510Z,42.85
2022-10-17T04:02:27.331Z,42.00
2022-10-17T04:05:51.390Z,40.58
2022-10-17T04:08:57.302Z,40.55
2022-10-17T04:12:06.553Z,40.70
2022-10-17T04:15:15.178Z,41.55
2022-10-17T04:18:20.547Z,39.40
2022-10-17T04:21:28.474Z,39.90
2022-10-17T04:24:35.046Z,40.25
2022-10-17T04:27:46.835Z,39.88
2022-10-17T04:31:03.760Z,39.90
2022-10-17T04:34:14.812Z,42.17
2022-10-17T04:37:19.973Z,40.28
2022-10-17T04:40:27.623Z,38.80
2022-10-17T04:43:36.971Z,41.35
2022-10-17T04:46:42.305Z,40.35
2022-10-17T04:49:47.474Z,39.78
2022-10-17T04:52:54.536Z,41.30
2022-10-17T04:56:00.204Z,42.03
2022-10-17T04:59:05.584Z,43.45
2022-10-17T05:02:10.734Z,37.28
2022-10-17T05:05:16.110Z,42.70
2022-10-17T05:08:24.090Z,43.70
2022-10-17T05:11:30.517Z,41.50
2022-10-17T05:14:35.611Z,41.60
2022-10-17T05:17:41.480Z,41.63
2022-10-17T05:20:46.829Z,42.55
2022-10-17T05:23:52.794Z,43.22
2022-10-17T05:26:58.328Z,42.97
2022-10-17T05:30:03.782Z,42.00
2022-10-17T05:33:12.331Z,43.00
2022-10-17T05:36:18.888Z,43.58
2022-10-17T05:39:24.701Z,43.45
2022-10-17T05:42:31.245Z,41.50
2022-10-17T05:45:37.625Z,41.63
2022-10-17T05:48:44.946Z,41.58
2022-10-17T05:51:50.193Z,43.15
2022-10-17T05:54:55.482Z,41.00
2022-10-17T05:58:02.071Z,41.72
2022-10-17T06:01:13.692Z,43.55
2022-10-17T06:04:19.214Z,42.50
2022-10-17T06:07:24.962Z,43.72
2022-10-17T06:10:31.217Z,43.97
2022-10-17T06:13:39.347Z,46.67
2022-10-17T06:16:50.909Z,46.47
2022-10-17T06:19:57.543Z,46.03
2022-10-17T06:23:03.212Z,43.85
2022-10-17T06:26:34.571Z,37.05
2022-10-17T06:29:40.803Z,39.78
2022-10-17T06:32:46.362Z,41.40
2022-10-17T06:35:56.649Z,43.97
2022-10-17T06:42:15.318Z,42.95
2022-10-17T06:45:48.245Z,43.78
2022-10-17T06:49:11.072Z,46.47
2022-10-17T06:52:22.726Z,49.00
2022-10-17T06:55:54.364Z,50.75
2022-10-17T06:59:24.177Z,50.20
2022-10-17T07:02:37.088Z,49.35
2022-10-17T07:05:42.180Z,44.78
2022-10-17T07:08:47.697Z,47.58
2022-10-17T07:11:56.437Z,44.67
2022-10-17T07:15:04.541Z,44.83
2022-10-17T07:18:11.308Z,47.33
2022-10-17T07:21:18.391Z,45.22
2022-10-17T07:24:24.243Z,47.65
2022-10-17T07:27:43.238Z,47.08
2022-10-17T07:30:52.005Z,48.30
2022-10-17T07:34:01.000Z,50.67
2022-10-17T07:37:07.866Z,51.75
2022-10-17T07:40:13.631Z,52.47
2022-10-17T07:43:19.031Z,50.20
2022-10-17T07:46:25.601Z,52.35
2022-10-17T07:49:31.328Z,51.40
2022-10-17T07:52:36.577Z,53.97
2022-10-17T07:55:43.061Z,51.58
2022-10-17T07:58:48.639Z,50.13
2022-10-17T08:01:57.398Z,53.63
2022-10-17T08:05:02.455Z,54.45
2022-10-17T08:08:08.817Z,54.00
2022-10-17T08:11:16.341Z,60.05
2022-10-17T08:14:22.082Z,57.47
2022-10-17T08:17:28.248Z,58.45
2022-10-17T08:20:33.572Z,58.45
2022-10-17T08:23:39.968Z,61.22
2022-10-17T08:26:48.287Z,59.65
2022-10-17T08:29:56.093Z,58.30
2022-10-17T08:33:01.653Z,57.92
2022-10-17T08:36:08.886Z,56.88
2022-10-17T08:39:14.182Z,55.75
2022-10-17T08:42:55.437Z,53.60
2022-10-17T08:46:08.031Z,53.63
2022-10-17T08:49:37.382Z,52.55
2022-10-17T08:52:52.425Z,52.67
2022-10-17T08:56:00.630Z,50.42
2022-10-17T08:59:17.795Z,50.13
2022-10-17T09:02:40.309Z,49.47
2022-10-17T09:06:02.141Z,50.00
2022-10-17T09:09:25.297Z,48.67
2022-10-17T09:12:57.404Z,49.55
2022-10-17T09:16:15.395Z,49.50
2022-10-17T09:19:24.870Z,49.40
2022-10-17T09:23:04.782Z,47.70
2022-10-17T09:26:11.973Z,49.15
2022-10-17T09:29:30.873Z,48.40
2022-10-17T09:32:41.422Z,49.40
2022-10-17T09:35:48.319Z,46.70
2022-10-17T09:39:00.258Z,48.80
2022-10-17T09:42:05.842Z,49.08
2022-10-17T09:45:11.400Z,49.00
2022-10-17T09:48:25.556Z,48.13
2022-10-17T09:51:32.693Z,49.63
2022-10-17T09:55:03.602Z,48.67
2022-10-17T09:58:10.856Z,50.03
2022-10-17T10:01:24.225Z,47.88
2022-10-17T10:04:30.468Z,49.72
2022-10-17T10:07:45.103Z,49.33
2022-10-17T10:10:59.480Z,46.42
2022-10-17T10:14:13.925Z,48.13
2022-10-17T10:17:44.440Z,44.90
2022-10-17T10:21:14.305Z,47.15
2022-10-17T10:24:20.640Z,45.97
2022-10-17T10:27:27.608Z,45.75
2022-10-17T10:30:36.195Z,43.15
2022-10-17T10:33:49.453Z,41.58
2022-10-17T10:37:16.990Z,40.92
2022-10-17T10:40:38.317Z,39.33
2022-10-17T10:43:48.061Z,42.95
2022-10-17T10:47:16.953Z,41.15
2022-10-17T10:50:34.754Z,41.97
2022-10-17T10:54:00.225Z,37.20
2022-10-17T10:57:12.144Z,35.03
2022-10-17T11:00:23.917Z,35.67
2022-10-17T11:03:51.508Z,37.70
2022-10-17T11:07:13.919Z,37.35
2022-10-17T11:10:58.462Z,34.67
2022-10-17T11:14:41.446Z,34.30
2022-10-17T11:17:57.409Z,33.70
2022-10-17T11:21:36.974Z,35.05
2022-10-17T11:25:11.853Z,36.50
2022-10-17T11:28:20.999Z,37.85
2022-10-17T11:31:33.218Z,37.33
2022-10-17T11:35:01.377Z,37.47
2022-10-17T11:38:18.316Z,35.00
2022-10-17T11:41:45.907Z,37.25
2022-10-17T11:45:06.914Z,35.30
2022-10-17T11:48:20.997Z,33.55
2022-10-17T11:54:58.297Z,34.80
2022-10-17T11:58:16.128Z,33.83
2022-10-17T12:01:53.001Z,35.92
2022-10-17T12:05:14.086Z,35.15
2022-10-17T12:08:38.168Z,37.17
2022-10-17T12:11:55.959Z,36.20
2022-10-17T12:15:14.105Z,37.78
2022-10-17T12:18:19.709Z,35.75
2022-10-17T12:21:27.323Z,34.08
2022-10-17T12:24:44.913Z,33.47
2022-10-17T12:27:51.485Z,33.42
2022-10-17T12:31:13.376Z,34.10
2022-10-17T12:34:24.249Z,32.72
2022-10-17T12:37:51.269Z,33.30
2022-10-17T12:41:00.989Z,34.83
2022-10-17T12:44:15.553Z,33.35
2022-10-17T12:47:36.964Z,30.90
2022-10-17T12:51:30.739Z,33.00
2022-10-17T12:54:27.420Z,32.30
2022-10-17T12:57:38.946Z,34.10
2022-10-17T13:01:05.309Z,34.90
2022-10-17T13:04:16.604Z,33.87
2022-10-17T13:07:23.943Z,33.45
2022-10-17T13:10:34.165Z,36.22
2022-10-17T13:13:49.167Z,35.60
2022-10-17T13:17:06.552Z,37.05
2022-10-17T13:20:29.056Z,33.45
2022-10-17T13:23:38.314Z,36.95
2022-10-17T13:26:46.060Z,35.63
2022-10-17T13:29:51.186Z,33.45
2022-10-17T13:32:57.569Z,34.60
2022-10-17T13:36:08.053Z,37.25
2022-10-17T13:39:23.151Z,33.97
2022-10-17T13:42:40.749Z,36.10
2022-10-17T13:45:52.801Z,34.55
2022-10-17T13:49:00.582Z,37.75
2022-10-17T13:52:16.112Z,34.78
2022-10-17T13:55:22.295Z,36.38
2022-10-17T13:58:35.543Z,36.13
2022-10-17T14:01:41.230Z,39.42
2022-10-17T14:08:22.891Z,35.75
2022-10-17T14:11:41.773Z,35.08
2022-10-17T14:18:33.286Z,36.45
2022-10-17T14:21:44.671Z,35.45
2022-10-17T14:24:53.506Z,35.40
2022-10-17T14:28:08.249Z,34.25
2022-10-17T14:31:26.053Z,36.63
2022-10-17T14:34:37.697Z,36.10
2022-10-17T14:37:46.664Z,35.92
2022-10-17T14:41:09.826Z,35.97
2022-10-17T14:44:31.161Z,34.85
2022-10-17T14:47:43.524Z,34.25
2022-10-17T14:51:16.677Z,34.10
2022-10-17T14:54:29.523Z,34.03
2022-10-17T14:57:43.630Z,33.13
2022-10-17T15:00:49.241Z,35.38
2022-10-17T15:03:54.371Z,37.10
2022-10-17T15:06:59.633Z,35.38
2022-10-17T15:10:06.334Z,35.78
2022-10-17T15:13:27.807Z,36.30
2022-10-17T15:16:35.476Z,35.00
2022-10-17T15:19:40.502Z,36.53
2022-10-17T15:22:46.124Z,35.85
2022-10-17T15:25:52.431Z,37.60
2022-10-17T15:28:59.276Z,36.30
2022-10-17T15:32:04.512Z,34.33
2022-10-17T15:35:10.032Z,38.72
2022-10-17T15:38:18.547Z,35.38
2022-10-17T15:41:27.064Z,36.40
2022-10-17T15:44:33.524Z,37.50
2022-10-17T15:47:39.290Z,37.97
2022-10-17T15:50:45.777Z,36.45
2022-10-17T15:53:52.948Z,37.33
2022-10-17T15:56:58.695Z,37.47
2022-10-17T16:00:07.009Z,37.13
2022-10-17T16:03:14.577Z,38.35
2022-10-17T16:06:21.801Z,36.85
2022-10-17T16:09:28.145Z,38.22
2022-10-17T16:12:41.452Z,37.88
2022-10-17T16:15:47.045Z,37.70
2022-10-17T16:18:55.666Z,38.63
2022-10-17T16:22:04.505Z,38.20
2022-10-17T16:25:28.606Z,38.33
2022-10-17T16:28:34.977Z,37.05
2022-10-17T16:31:43.590Z,39.35
2022-10-17T16:34:58.558Z,40.05
2022-10-17T16:38:17.492Z,39.05
2022-10-17T16:41:34.423Z,41.35
2022-10-17T16:44:43.167Z,38.28
2022-10-17T16:48:05.200Z,38.70
2022-10-17T16:52:00.789Z,38.47
2022-10-17T16:55:10.581Z,41.22
2022-10-17T16:58:16.066Z,37.70
2022-10-17T17:01:24.024Z,40.00
2022-10-17T17:04:29.729Z,40.88
2022-10-17T17:07:35.954Z,44.95
2022-10-17T17:10:47.621Z,41.13
2022-10-17T17:13:59.168Z,41.85
2022-10-17T17:17:04.674Z,43.83
2022-10-17T17:20:10.652Z,40.78
2022-10-17T17:23:16.947Z,44.55
2022-10-17T17:26:23.436Z,43.47
2022-10-17T17:29:29.091Z,43.03
2022-10-17T17:32:34.099Z,43.38
2022-10-17T17:35:40.636Z,45.10
2022-10-17T17:38:47.058Z,42.55
2022-10-17T17:41:52.525Z,42.25
2022-10-17T17:44:57.987Z,43.70
2022-10-17T17:48:04.006Z,43.10
2022-10-17T17:51:12.099Z,42.67
2022-10-17T17:54:17.634Z,47.42
2022-10-17T17:57:23.358Z,47.53
2022-10-17T18:00:29.437Z,45.95
2022-10-17T18:03:35.035Z,44.45
2022-10-17T18:06:40.900Z,46.42
2022-10-17T18:09:46.016Z,48.47
2022-10-17T18:12:51.246Z,45.28
2022-10-17T18:16:01.442Z,43.20
2022-10-17T18:19:11.618Z,47.25
2022-10-17T18:22:19.981Z,47.70
2022-10-17T18:25:27.950Z,48.08
2022-10-17T18:28:36.652Z,48.72
2022-10-17T18:31:42.446Z,49.38
2022-10-17T18:34:47.229Z,49.25
2022-10-17T18:37:52.417Z,49.75
2022-10-17T18:41:18.516Z,47.03
2022-10-17T18:44:24.134Z,49.78
2022-10-17T18:47:30.062Z,48.40
2022-10-17T18:50:39.086Z,48.20
2022-10-17T18:53:47.994Z,52.08
2022-10-17T18:56:55.234Z,51.88
2022-10-17T19:00:00.879Z,52.75
2022-10-17T19:03:08.148Z,51.67
2022-10-17T19:06:19.899Z,53.58
2022-10-17T19:09:25.465Z,54.35
2022-10-17T19:12:31.100Z,52.83
2022-10-17T19:15:37.284Z,54.47
2022-10-17T19:18:43.797Z,54.83
2022-10-17T19:21:50.493Z,51.33
2022-10-17T19:24:56.175Z,54.17
2022-10-17T19:28:01.842Z,49.92
2022-10-17T19:31:07.668Z,51.40
2022-10-17T19:34:14.822Z,50.47
2022-10-17T19:37:19.933Z,53.75
2022-10-17T19:40:25.434Z,54.92
2022-10-17T19:43:31.253Z,55.22
2022-10-17T19:46:37.514Z,53.42
2022-10-17T19:49:47.687Z,54.22
2022-10-17T19:52:55.477Z,55.30
2022-10-17T19:56:02.194Z,56.72
2022-10-17T19:59:09.645Z,57.35
2022-10-17T20:02:16.070Z,57.13
2022-10-17T20:05:25.962Z,56.65
2022-10-17T20:08:33.429Z,53.60
2022-10-17T20:11:38.485Z,56.45
2022-10-17T20:14:44.450Z,58.50
2022-10-17T20:17:49.878Z,52.65
2022-10-17T20:20:56.462Z,55.75
2022-10-17T20:24:03.977Z,55.42
2022-10-17T20:27:09.549Z,51.60
2022-10-17T20:30:15.265Z,53.55
2022-10-17T20:33:20.841Z,52.55
2022-10-17T20:36:27.219Z,52.92
2022-10-17T20:39:32.868Z,52.90
2022-10-17T20:42:38.585Z,51.00
2022-10-17T20:45:51.510Z,52.00
2022-10-17T20:48:58.995Z,50.65
2022-10-17T20:52:04.731Z,48.63
2022-10-17T20:55:10.506Z,49.58
2022-10-17T20:58:16.049Z,51.00
2022-10-17T21:01:22.682Z,50.13
2022-10-17T21:04:47.005Z,47.72
2022-10-17T21:07:52.850Z,47.45
2022-10-17T21:11:13.630Z,48.90
2022-10-17T21:14:19.370Z,46.47
2022-10-17T21:17:25.594Z,49.03
2022-10-17T21:20:31.383Z,45.55
2022-10-17T21:23:37.270Z,48.83
2022-10-17T21:26:44.101Z,48.47
2022-10-17T21:29:49.995Z,48.30
2022-10-17T21:32:55.904Z,47.30
2022-10-17T21:36:01.498Z,52.50
2022-10-17T21:42:19.577Z,47.03
2022-10-17T21:45:26.241Z,48.47
2022-10-17T21:48:33.119Z,47.38
2022-10-17T21:51:39.429Z,46.22
2022-10-17T21:54:45.067Z,47.45
2022-10-17T21:57:52.133Z,46.28
2022-10-17T22:01:12.665Z,46.38
2022-10-17T22:04:20.054Z,47.97
2022-10-17T22:07:25.983Z,46.65
2022-10-17T22:10:31.780Z,50.13
2022-10-17T22:13:38.517Z,49.60
2022-10-17T22:16:48.048Z,47.80
2022-10-17T22:19:53.365Z,44.50
2022-10-17T22:22:59.282Z,48.15
2022-10-17T22:26:06.092Z,51.25
2022-10-17T22:29:12.221Z,48.83
2022-10-17T22:32:21.512Z,50.90
2022-10-17T22:35:28.590Z,50.77
2022-10-17T22:38:34.825Z,51.17
2022-10-17T22:41:40.307Z,47.70
2022-10-17T22:44:47.010Z,50.75
2022-10-17T22:47:54.072Z,49.80
2022-10-17T22:51:00.469Z,52.75
2022-10-17T22:54:06.295Z,50.03
2022-10-17T22:57:13.039Z,47.13
2022-10-17T23:00:18.573Z,45.55
2022-10-17T23:03:27.077Z,48.05
2022-10-17T23:06:32.103Z,48.97
2022-10-17T23:09:37.860Z,48.92
2022-10-17T23:12:43.756Z,48.97
2022-10-17T23:15:54.369Z,49.03
2022-10-17T23:18:59.910Z,48.37
2022-10-17T23:22:06.806Z,48.20
2022-10-17T23:25:12.052Z,48.15
2022-10-17T23:28:18.173Z,46.65
2022-10-17T23:31:23.573Z,50.10
2022-10-17T23:34:30.805Z,46.50
2022-10-17T23:37:36.584Z,46.28
2022-10-17T23:40:42.534Z,48.65
2022-10-17T23:43:48.009Z,47.22
2022-10-17T23:46:53.959Z,46.15
2022-10-17T23:49:59.704Z,50.67
2022-10-17T23:53:05.471Z,49.10
2022-10-17T23:56:11.833Z,46.90
2022-10-17T23:59:17.525Z,49.45
